HBZTZ BIKR-BIRK
Flight info
| Callsign | HBZTZ |
|---|---|
| Flight time | N/A |
| Altitude | 1500 |
| Route | RENIF |
| Aircraft | R66/L-SDGRY/S |
Departure
| Time | N/A |
|---|---|
| Airport | Sauðárkrókur Airport (BIKR) |
Arrival
| Time | 2026-05-06 08:24 |
|---|---|
| Airport | Reykjavík Domestic Airport (BIRK) |
| Time | Latitude | Longitude | Altitude | Speed | Heading |
|---|---|---|---|---|---|
| 2026-05-06 08:23 | 64.12839 | -21.93120 | 26 ft | 0 kts | 180° |
| 2026-05-06 08:25 | 64.12839 | -21.93119 | 26 ft | 0 kts | 192° |
| 2026-05-06 08:25 | 64.12838 | -21.93119 | 26 ft | 0 kts | 202° |
| 2026-05-06 08:26 | 64.12781 | -21.93153 | 93 ft | 10 kts | 262° |
| 2026-05-06 08:26 | 64.12727 | -21.93169 | 302 ft | 26 kts | 188° |
| 2026-05-06 08:27 | 64.12805 | -21.93503 | 354 ft | 51 kts | 6° |
| 2026-05-06 08:27 | 64.13175 | -21.93201 | 506 ft | 63 kts | 24° |
| 2026-05-06 08:27 | 64.13569 | -21.92648 | 671 ft | 72 kts | 36° |
| 2026-05-06 08:27 | 64.13927 | -21.91855 | 870 ft | 73 kts | 44° |
| 2026-05-06 08:28 | 64.14293 | -21.90917 | 958 ft | 88 kts | 47° |
| 2026-05-06 08:28 | 64.14692 | -21.89762 | 1034 ft | 93 kts | 45° |
| 2026-05-06 08:28 | 64.15231 | -21.88852 | 1051 ft | 97 kts | 23° |
| 2026-05-06 08:28 | 64.15869 | -21.88626 | 1181 ft | 97 kts | 2° |
| 2026-05-06 08:29 | 64.16528 | -21.88745 | 1346 ft | 86 kts | 4° |
| 2026-05-06 08:29 | 64.17109 | -21.88735 | 1464 ft | 85 kts | 10° |
| 2026-05-06 08:29 | 64.17691 | -21.88663 | 1381 ft | 96 kts | 5° |
| 2026-05-06 08:29 | 64.18451 | -21.88983 | 1133 ft | 114 kts | 353° |
| 2026-05-06 08:30 | 64.19226 | -21.89241 | 1097 ft | 111 kts | 1° |
| 2026-05-06 08:30 | 64.19988 | -21.89271 | 1075 ft | 109 kts | 2° |
| 2026-05-06 08:30 | 64.20764 | -21.89438 | 999 ft | 110 kts | 356° |
| 2026-05-06 08:30 | 64.21510 | -21.89889 | 844 ft | 104 kts | 353° |
| 2026-05-06 08:31 | 64.22041 | -21.89618 | 862 ft | 98 kts | 41° |
| 2026-05-06 08:31 | 64.22292 | -21.87987 | 955 ft | 109 kts | 71° |
| 2026-05-06 08:31 | 64.22458 | -21.86223 | 860 ft | 119 kts | 72° |
| 2026-05-06 08:31 | 64.22560 | -21.84597 | 1283 ft | 91 kts | 75° |
| 2026-05-06 08:32 | 64.22584 | -21.83051 | 1325 ft | 102 kts | 81° |
| 2026-05-06 08:32 | 64.22742 | -21.81717 | 1683 ft | 80 kts | 62° |
| 2026-05-06 08:32 | 64.22918 | -21.80632 | 2000 ft | 64 kts | 70° |
| 2026-05-06 08:32 | 64.22946 | -21.79670 | 2300 ft | 55 kts | 83° |
| 2026-05-06 08:33 | 64.22944 | -21.78761 | 2315 ft | 72 kts | 70° |
| 2026-05-06 08:33 | 64.23067 | -21.77743 | 2404 ft | 61 kts | 68° |
| 2026-05-06 08:33 | 64.23153 | -21.76959 | 2540 ft | 31 kts | 33° |
| 2026-05-06 08:33 | 64.23306 | -21.77169 | 2404 ft | 9 kts | 78° |
| 2026-05-06 08:34 | 64.23251 | -21.77008 | 2502 ft | 14 kts | 65° |
| 2026-05-06 08:34 | 64.23256 | -21.77282 | 2294 ft | 16 kts | 96° |
| 2026-05-06 08:34 | 64.23170 | -21.77564 | 1968 ft | 45 kts | 226° |
| 2026-05-06 08:35 | 64.22921 | -21.77958 | 952 ft | 15 kts | 294° |